首页
METAR-TAF:

METAR-TAF

机场 :

Lossiemouth, 苏格兰

纬度: 57-43N, 经度: 003-19W, 海拔: 13米

当前天气观测

该预报发布于15分钟前的19:50 UTC
风速14节,风向西转西南
温度 4°C
湿度 81%
气压 1005 hPa
能见度10公里或以上
少量云层高于4500英尺
多云层高于22000英尺

METAR: EGQS 171950Z 25014KT 9999 FEW045 BKN220 04/01 Q1005 RMK BLU

时间: 20:05 (20:05 UTC)

预报

该预报发布于3小时和44分钟前的16:21 UTC
预报有效从17日的 18点(UTC)到 18日的 12点(UTC)
风速13节,风向西转西南
能见度10公里或以上
少量云层高于3000英尺
几率 30% :
短暂存在
从 17日的 18点(UTC)到 17日的 24点(UTC)
风速16节,风向西转西南,有时为26节阵风
能見度: 7000
散云层高于2000英尺
阵雨
几率 30% :
短暂存在
从 18日的 00点(UTC)到 18日的 12点(UTC)
风速18节,风向西,有时为28节阵风
能見度: 4000
散云层高于1200英尺, 积雨云.
多云层高于2000英尺
阵雨, 雪, 阵雨, 小冰雹或雪球

TAF: EGQS 171621Z 1718/1812 24013KT 9999 FEW030 PROB30 TEMPO 1718/1724 25016G26KT 7000 SHRA SCT020 PROB30 TEMPO 1800/1812 27018G28KT 4000 SHRASN SHGS SCT012CB BKN020

超过4000个机场的气象观测和天气预报(METAR&TAF报告)。

可查询的气象台以黄色和红色小点在地图上表示。

将鼠标移到小点上方,可查看气象台名称。

然后点击查看天气观测和预报。

如需切换地图:点击带黑十字的绿色按钮放大地图;点击带横线的绿色按钮缩小地图;或者点击绿色箭头查看邻近地区的地图。


METAR-TAF: